IBE0630 LEMD-LEBL
Flight info
| Callsign | IBE0630 |
|---|---|
| Flight time | 0h 52m |
| Altitude | 30000 |
| Route | PINAR N870 PONEN T600 CASPE |
| Aircraft | B738/M-SDE2E3FGHIRWXY/LB1 |
Departure
| Time | 2026-05-04 06:11 |
|---|---|
| Airport | Adolfo Suárez Madrid–Barajas Airport (LEMD) |
Arrival
| Time | 2026-05-04 07:03 |
|---|---|
| Airport | Josep Tarradellas Barcelona-El Prat Airport (LEBL) |
| Time | Latitude | Longitude | Altitude | Speed | Heading |
|---|---|---|---|---|---|
| 2026-05-04 05:54 | 40.49348 | -3.58991 | 2029 ft | 0 kts | 269° |
| 2026-05-04 06:03 | 40.49403 | -3.58904 | 2028 ft | 0 kts | 181° |
| 2026-05-04 06:03 | 40.49410 | -3.58905 | 2028 ft | 0 kts | 179° |
| 2026-05-04 06:05 | 40.49410 | -3.58904 | 2028 ft | 0 kts | 179° |
| 2026-05-04 06:05 | 40.49356 | -3.58903 | 2027 ft | 13 kts | 179° |
| 2026-05-04 06:06 | 40.49260 | -3.58893 | 2025 ft | 13 kts | 146° |
| 2026-05-04 06:06 | 40.49242 | -3.58766 | 2022 ft | 15 kts | 90° |
| 2026-05-04 06:06 | 40.49242 | -3.58612 | 2018 ft | 18 kts | 89° |
| 2026-05-04 06:06 | 40.49243 | -3.58437 | 2015 ft | 20 kts | 90° |
| 2026-05-04 06:07 | 40.49243 | -3.58247 | 2011 ft | 21 kts | 89° |
| 2026-05-04 06:07 | 40.49244 | -3.58032 | 2003 ft | 24 kts | 89° |
| 2026-05-04 06:07 | 40.49244 | -3.57825 | 1999 ft | 20 kts | 90° |
| 2026-05-04 06:07 | 40.49244 | -3.57660 | 1993 ft | 15 kts | 85° |
| 2026-05-04 06:08 | 40.49266 | -3.57575 | 1990 ft | 0 kts | 61° |
| 2026-05-04 06:09 | 40.49267 | -3.57574 | 1990 ft | 1 kts | 61° |
| 2026-05-04 06:11 | 40.53910 | -3.57449 | 4055 ft | 182 kts | 357° |
| 2026-05-04 06:11 | 40.55236 | -3.57471 | 4551 ft | 197 kts | 1° |
| 2026-05-04 06:13 | 40.66620 | -3.53904 | 9198 ft | 264 kts | 0° |
| 2026-05-04 06:14 | 40.75272 | -3.44327 | 12685 ft | 335 kts | 57° |
| 2026-05-04 06:14 | 40.76577 | -3.41701 | 13153 ft | 351 kts | 56° |
| 2026-05-04 06:15 | 40.77956 | -3.39006 | 13764 ft | 361 kts | 56° |
| 2026-05-04 06:15 | 40.79386 | -3.36247 | 14485 ft | 368 kts | 56° |
| 2026-05-04 06:15 | 40.80835 | -3.33466 | 15203 ft | 374 kts | 56° |
| 2026-05-04 06:15 | 40.82317 | -3.30618 | 15908 ft | 380 kts | 56° |
| 2026-05-04 06:16 | 40.83800 | -3.27702 | 16604 ft | 386 kts | 58° |
| 2026-05-04 06:16 | 40.85121 | -3.24635 | 17249 ft | 391 kts | 66° |
| 2026-05-04 06:16 | 40.86137 | -3.21319 | 17965 ft | 393 kts | 73° |
| 2026-05-04 06:16 | 40.86936 | -3.17850 | 18608 ft | 398 kts | 77° |
| 2026-05-04 06:17 | 40.87632 | -3.14291 | 19252 ft | 402 kts | 79° |
| 2026-05-04 06:17 | 40.88291 | -3.10733 | 19896 ft | 407 kts | 79° |
| 2026-05-04 06:17 | 40.88970 | -3.07069 | 20545 ft | 411 kts | 79° |
| 2026-05-04 06:17 | 40.89653 | -3.03416 | 21146 ft | 416 kts | 79° |
| 2026-05-04 06:18 | 40.90358 | -2.99696 | 21807 ft | 418 kts | 79° |
| 2026-05-04 06:18 | 40.91073 | -2.95955 | 22396 ft | 422 kts | 78° |
| 2026-05-04 06:18 | 40.91796 | -2.92198 | 22957 ft | 427 kts | 78° |
| 2026-05-04 06:20 | 40.97106 | -2.64731 | 26547 ft | 457 kts | 79° |
| 2026-05-04 06:20 | 40.97891 | -2.60655 | 27017 ft | 461 kts | 78° |
| 2026-05-04 06:21 | 41.01080 | -2.43969 | 28750 ft | 477 kts | 78° |
| 2026-05-04 06:21 | 41.01895 | -2.39685 | 29187 ft | 481 kts | 79° |
| 2026-05-04 06:22 | 41.02711 | -2.35381 | 29615 ft | 484 kts | 78° |
| 2026-05-04 06:22 | 41.03539 | -2.31005 | 29929 ft | 489 kts | 79° |
| 2026-05-04 06:25 | 41.14108 | -1.74396 | 29958 ft | 488 kts | 79° |
| 2026-05-04 06:26 | 41.15705 | -1.65673 | 29958 ft | 488 kts | 79° |
| 2026-05-04 06:26 | 41.17300 | -1.56922 | 29962 ft | 490 kts | 79° |
| 2026-05-04 06:27 | 41.21261 | -1.35026 | 29983 ft | 489 kts | 79° |
| 2026-05-04 06:28 | 41.22835 | -1.26263 | 29969 ft | 488 kts | 81° |
| 2026-05-04 06:28 | 41.24399 | -1.17523 | 29976 ft | 487 kts | 80° |
| 2026-05-04 06:29 | 41.25955 | -1.08796 | 29972 ft | 486 kts | 81° |
| 2026-05-04 06:29 | 41.27493 | -1.00112 | 29976 ft | 486 kts | 80° |
| 2026-05-04 06:30 | 41.29024 | -0.91418 | 29971 ft | 486 kts | 81° |
| 2026-05-04 06:30 | 41.30554 | -0.82691 | 29964 ft | 486 kts | 80° |
| 2026-05-04 06:31 | 41.32079 | -0.73958 | 29962 ft | 486 kts | 80° |
| 2026-05-04 06:31 | 41.33603 | -0.65188 | 29955 ft | 486 kts | 81° |
| 2026-05-04 06:33 | 41.32816 | -0.30333 | 29945 ft | 471 kts | 106° |
| 2026-05-04 06:34 | 41.31738 | -0.21685 | 29938 ft | 474 kts | 105° |
| 2026-05-04 06:34 | 41.30703 | -0.13085 | 29932 ft | 471 kts | 105° |
| 2026-05-04 06:36 | 41.27401 | 0.21384 | 27934 ft | 466 kts | 87° |
| 2026-05-04 06:37 | 41.27981 | 0.25622 | 27955 ft | 472 kts | 81° |
| 2026-05-04 06:37 | 41.28795 | 0.29922 | 27940 ft | 477 kts | 77° |
| 2026-05-04 06:37 | 41.29704 | 0.34136 | 27946 ft | 477 kts | 76° |
| 2026-05-04 06:37 | 41.30674 | 0.38379 | 27948 ft | 476 kts | 75° |
| 2026-05-04 06:38 | 41.31638 | 0.42534 | 27948 ft | 476 kts | 76° |
| 2026-05-04 06:38 | 41.32622 | 0.46800 | 27947 ft | 477 kts | 76° |
| 2026-05-04 06:40 | 41.39111 | 0.76166 | 24498 ft | 467 kts | 77° |
| 2026-05-04 06:40 | 41.40007 | 0.80316 | 23860 ft | 461 kts | 77° |
| 2026-05-04 06:40 | 41.40871 | 0.84328 | 23298 ft | 446 kts | 77° |
| 2026-05-04 06:40 | 41.41708 | 0.88236 | 22774 ft | 434 kts | 77° |
| 2026-05-04 06:41 | 41.42525 | 0.92084 | 22172 ft | 433 kts | 77° |
| 2026-05-04 06:41 | 41.43338 | 0.95937 | 21599 ft | 431 kts | 77° |
| 2026-05-04 06:41 | 41.44143 | 0.99755 | 21034 ft | 429 kts | 77° |
| 2026-05-04 06:41 | 41.44954 | 1.03612 | 20460 ft | 427 kts | 77° |
| 2026-05-04 06:42 | 41.45750 | 1.07387 | 20004 ft | 422 kts | 76° |
| 2026-05-04 06:42 | 41.46529 | 1.11072 | 19969 ft | 411 kts | 76° |
| 2026-05-04 06:42 | 41.47305 | 1.14743 | 19953 ft | 413 kts | 76° |
| 2026-05-04 06:44 | 41.52669 | 1.40183 | 16500 ft | 401 kts | 76° |
| 2026-05-04 06:44 | 41.53415 | 1.43763 | 15943 ft | 399 kts | 76° |
| 2026-05-04 06:44 | 41.54120 | 1.47300 | 15384 ft | 397 kts | 78° |
| 2026-05-04 06:45 | 41.54647 | 1.50898 | 14955 ft | 381 kts | 84° |
| 2026-05-04 06:45 | 41.54894 | 1.54308 | 14430 ft | 367 kts | 89° |
| 2026-05-04 06:45 | 41.54959 | 1.57683 | 13881 ft | 354 kts | 92° |
| 2026-05-04 06:45 | 41.54946 | 1.60902 | 13374 ft | 343 kts | 93° |
| 2026-05-04 06:46 | 41.54919 | 1.64018 | 12935 ft | 337 kts | 93° |
| 2026-05-04 06:46 | 41.54900 | 1.67152 | 12399 ft | 339 kts | 93° |
| 2026-05-04 06:46 | 41.54891 | 1.70260 | 11921 ft | 338 kts | 93° |
| 2026-05-04 06:46 | 41.54883 | 1.73418 | 11424 ft | 338 kts | 92° |
| 2026-05-04 06:48 | 41.54446 | 1.93471 | 9961 ft | 283 kts | 103° |
| 2026-05-04 06:48 | 41.54059 | 1.96074 | 9931 ft | 287 kts | 103° |
| 2026-05-04 06:49 | 41.53675 | 1.98686 | 9671 ft | 287 kts | 103° |
| 2026-05-04 06:50 | 41.52143 | 2.17312 | 8642 ft | 286 kts | 88° |
| 2026-05-04 06:51 | 41.52238 | 2.19940 | 8297 ft | 282 kts | 89° |
| 2026-05-04 06:51 | 41.52277 | 2.22526 | 8070 ft | 275 kts | 94° |
| 2026-05-04 06:51 | 41.51929 | 2.24942 | 7972 ft | 261 kts | 117° |
| 2026-05-04 06:51 | 41.50834 | 2.26753 | 7967 ft | 247 kts | 147° |
| 2026-05-04 06:52 | 41.49323 | 2.27764 | 7970 ft | 245 kts | 160° |
| 2026-05-04 06:52 | 41.47770 | 2.28731 | 7954 ft | 246 kts | 149° |
| 2026-05-04 06:52 | 41.46574 | 2.30337 | 7959 ft | 252 kts | 120° |
| 2026-05-04 06:52 | 41.46109 | 2.32587 | 7954 ft | 257 kts | 93° |
| 2026-05-04 06:53 | 41.46362 | 2.34986 | 7664 ft | 263 kts | 72° |
| 2026-05-04 06:53 | 41.47054 | 2.37195 | 7380 ft | 262 kts | 65° |
| 2026-05-04 06:53 | 41.47842 | 2.39391 | 7097 ft | 260 kts | 65° |
| 2026-05-04 06:53 | 41.48620 | 2.41575 | 6804 ft | 260 kts | 65° |
| 2026-05-04 06:54 | 41.49374 | 2.43741 | 6514 ft | 259 kts | 66° |
| 2026-05-04 06:54 | 41.49992 | 2.45977 | 6252 ft | 255 kts | 79° |
| 2026-05-04 06:54 | 41.49999 | 2.48290 | 6006 ft | 249 kts | 106° |
| 2026-05-04 06:54 | 41.49300 | 2.50339 | 5828 ft | 239 kts | 133° |
| 2026-05-04 06:55 | 41.47977 | 2.51529 | 5784 ft | 227 kts | 165° |
| 2026-05-04 06:55 | 41.46449 | 2.51766 | 5709 ft | 222 kts | 187° |
| 2026-05-04 06:55 | 41.44943 | 2.51302 | 5449 ft | 222 kts | 204° |
| 2026-05-04 06:55 | 41.43669 | 2.50185 | 5194 ft | 220 kts | 229° |
| 2026-05-04 06:56 | 41.42966 | 2.48430 | 4976 ft | 216 kts | 255° |
| 2026-05-04 06:57 | 41.39532 | 2.36630 | 3484 ft | 180 kts | 243° |
| 2026-05-04 06:58 | 41.39024 | 2.35173 | 3349 ft | 169 kts | 247° |
| 2026-05-04 06:58 | 41.38539 | 2.33767 | 3230 ft | 165 kts | 243° |
| 2026-05-04 06:58 | 41.38070 | 2.32344 | 3149 ft | 169 kts | 246° |
| 2026-05-04 06:58 | 41.37606 | 2.30929 | 3007 ft | 167 kts | 245° |
| 2026-05-04 06:59 | 41.37119 | 2.29507 | 2841 ft | 168 kts | 245° |
| 2026-05-04 06:59 | 41.36643 | 2.28113 | 2675 ft | 165 kts | 245° |
| 2026-05-04 06:59 | 41.36169 | 2.26719 | 2545 ft | 162 kts | 245° |
| 2026-05-04 06:59 | 41.35710 | 2.25375 | 2444 ft | 157 kts | 245° |
| 2026-05-04 07:01 | 41.32620 | 2.16330 | 1001 ft | 144 kts | 246° |
| 2026-05-04 07:01 | 41.32202 | 2.15112 | 818 ft | 144 kts | 246° |
| 2026-05-04 07:02 | 41.31791 | 2.13895 | 578 ft | 146 kts | 247° |
| 2026-05-04 07:02 | 41.31355 | 2.12700 | 356 ft | 145 kts | 243° |
| 2026-05-04 07:02 | 41.30931 | 2.11488 | 283 ft | 141 kts | 247° |
| 2026-05-04 07:02 | 41.30553 | 2.10341 | 68 ft | 139 kts | 245° |
| 2026-05-04 07:03 | 41.30197 | 2.09279 | 14 ft | 100 kts | 245° |
| 2026-05-04 07:03 | 41.30008 | 2.08752 | 17 ft | 35 kts | 234° |
| 2026-05-04 07:03 | 41.29859 | 2.08558 | 18 ft | 25 kts | 215° |
| 2026-05-04 07:03 | 41.29746 | 2.08447 | 17 ft | 21 kts | 226° |
| 2026-05-04 07:04 | 41.29659 | 2.08254 | 19 ft | 26 kts | 246° |
| 2026-05-04 07:04 | 41.29590 | 2.08089 | 17 ft | 17 kts | 206° |
| 2026-05-04 07:04 | 41.29491 | 2.08116 | 16 ft | 13 kts | 154° |
| 2026-05-04 07:04 | 41.29408 | 2.08168 | 16 ft | 10 kts | 156° |
| 2026-05-04 07:05 | 41.29340 | 2.08193 | 16 ft | 10 kts | 192° |
| 2026-05-04 07:05 | 41.29270 | 2.08161 | 14 ft | 11 kts | 185° |
| 2026-05-04 07:05 | 41.29236 | 2.08158 | 14 ft | 0 kts | 182° |